createdAt,value
2018-04-07T00:00:55.597Z,53.23
2018-04-07T00:02:01.430Z,53.25
2018-04-07T00:03:07.408Z,53.18
2018-04-07T00:04:13.153Z,53.30
2018-04-07T00:05:18.915Z,53.41
2018-04-07T00:06:24.691Z,53.38
2018-04-07T00:07:31.211Z,53.46
2018-04-07T00:08:36.981Z,53.41
2018-04-07T00:09:43.480Z,53.42
2018-04-07T00:10:49.228Z,53.39
2018-04-07T00:11:55.021Z,53.42
2018-04-07T00:13:01.575Z,53.40
2018-04-07T00:14:08.848Z,53.45
2018-04-07T00:15:14.352Z,53.55
2018-04-07T00:16:20.088Z,53.57
2018-04-07T00:17:25.834Z,53.55
2018-04-07T00:18:31.745Z,53.65
2018-04-07T00:19:38.308Z,53.60
2018-04-07T00:20:44.148Z,53.70
2018-04-07T00:21:50.648Z,53.72
2018-04-07T00:22:56.176Z,53.69
2018-04-07T00:24:01.923Z,53.77
2018-04-07T00:25:07.452Z,53.78
2018-04-07T00:26:13.194Z,53.70
2018-04-07T00:27:18.704Z,53.67
2018-04-07T00:28:24.461Z,53.78
2018-04-07T00:29:30.209Z,53.76
2018-04-07T00:30:35.987Z,53.81
2018-04-07T00:31:42.500Z,53.81
2018-04-07T00:32:48.245Z,53.77
2018-04-07T00:33:53.996Z,53.76
2018-04-07T00:34:59.732Z,53.84
2018-04-07T00:36:05.507Z,53.91
2018-04-07T00:37:11.256Z,53.88
2018-04-07T00:38:16.998Z,53.78
2018-04-07T00:39:22.744Z,53.76
2018-04-07T00:40:28.255Z,53.86
2018-04-07T00:41:34.029Z,53.87
2018-04-07T00:42:40.311Z,53.90
2018-04-07T00:43:46.416Z,53.92
2018-04-07T00:44:52.165Z,53.90
2018-04-07T00:45:58.725Z,54.10
2018-04-07T00:47:04.282Z,54.03
2018-04-07T00:48:10.851Z,54.01
2018-04-07T00:49:16.384Z,53.97
2018-04-07T00:50:22.160Z,53.88
2018-04-07T00:51:27.908Z,53.80
2018-04-07T00:52:50.329Z,53.81
2018-04-07T00:53:56.080Z,53.94
2018-04-07T00:55:01.827Z,54.03
2018-04-07T00:56:07.573Z,54.19
2018-04-07T00:57:13.304Z,54.24
2018-04-07T00:58:18.812Z,54.18
2018-04-07T00:59:24.564Z,54.17
2018-04-07T01:00:30.472Z,54.22
2018-04-07T01:01:36.980Z,54.31
2018-04-07T01:02:42.811Z,54.44
2018-04-07T01:03:48.576Z,54.48
2018-04-07T01:04:54.317Z,54.41
2018-04-07T01:05:59.832Z,54.34
2018-04-07T01:07:05.578Z,54.39
2018-04-07T01:08:11.520Z,54.44
2018-04-07T01:09:17.291Z,54.62
2018-04-07T01:10:23.041Z,54.62
2018-04-07T01:11:28.794Z,54.60
2018-04-07T01:12:33.973Z,54.69
2018-04-07T01:13:39.716Z,54.86
2018-04-07T01:14:45.488Z,54.87
2018-04-07T01:15:52.002Z,54.96
2018-04-07T01:16:57.416Z,54.87
2018-04-07T01:18:03.924Z,55.06
2018-04-07T01:19:09.677Z,55.01
2018-04-07T01:20:15.518Z,54.96
2018-04-07T01:21:21.264Z,54.96
2018-04-07T01:22:27.000Z,54.91
2018-04-07T01:23:32.756Z,55.05
2018-04-07T01:24:38.518Z,55.16
2018-04-07T01:25:45.062Z,55.22
2018-04-07T01:26:51.587Z,55.22
2018-04-07T01:27:57.318Z,55.21
2018-04-07T01:29:03.082Z,55.22
2018-04-07T01:30:08.818Z,55.19
2018-04-07T01:31:14.598Z,55.16
2018-04-07T01:32:21.099Z,55.17
2018-04-07T01:33:26.845Z,55.25
2018-04-07T01:34:32.589Z,55.28
2018-04-07T01:35:38.336Z,55.30
2018-04-07T01:36:44.106Z,55.45
2018-04-07T01:37:50.624Z,55.47
2018-04-07T01:38:56.364Z,55.50
2018-04-07T01:40:01.976Z,55.57
2018-04-07T01:41:08.469Z,55.66
2018-04-07T01:42:14.005Z,55.62
2018-04-07T01:43:19.768Z,55.72
2018-04-07T01:44:25.543Z,55.63
2018-04-07T01:45:32.243Z,55.58
2018-04-07T01:46:38.012Z,55.64
2018-04-07T01:47:43.791Z,55.71
2018-04-07T01:48:50.306Z,55.79
2018-04-07T01:49:56.052Z,55.97
2018-04-07T01:51:01.803Z,55.82
2018-04-07T01:52:07.560Z,55.99
2018-04-07T01:53:13.326Z,55.91
2018-04-07T01:54:19.836Z,56.01
2018-04-07T01:55:25.578Z,56.06
2018-04-07T01:56:31.322Z,55.98
2018-04-07T01:57:37.064Z,56.00
2018-04-07T01:58:42.829Z,56.08
2018-04-07T01:59:49.341Z,56.01
2018-04-07T02:00:55.086Z,56.03
2018-04-07T02:02:00.833Z,56.06
2018-04-07T02:03:06.583Z,56.17
2018-04-07T02:04:12.345Z,56.20
2018-04-07T02:05:18.088Z,56.23
2018-04-07T02:06:23.837Z,56.32
2018-04-07T02:07:30.350Z,56.42
2018-04-07T02:08:36.092Z,56.41
2018-04-07T02:09:41.864Z,56.30
2018-04-07T02:10:47.613Z,56.26
2018-04-07T02:11:53.357Z,56.33
2018-04-07T02:12:58.765Z,56.38
2018-04-07T02:14:04.513Z,56.42
2018-04-07T02:15:10.287Z,56.40
2018-04-07T02:16:16.787Z,56.38
2018-04-07T02:17:22.529Z,56.50
2018-04-07T02:18:28.280Z,56.58
2018-04-07T02:19:34.030Z,56.60
2018-04-07T02:20:39.806Z,56.56
2018-04-07T02:21:46.313Z,56.59
2018-04-07T02:22:52.060Z,56.64
2018-04-07T02:23:57.800Z,56.74
2018-04-07T02:25:03.620Z,56.81
2018-04-07T02:26:09.385Z,56.88
2018-04-07T02:27:15.136Z,57.01
2018-04-07T02:28:20.886Z,56.98
2018-04-07T02:29:26.654Z,57.00
2018-04-07T02:30:33.174Z,57.08
2018-04-07T02:31:38.936Z,57.29
2018-04-07T02:32:44.693Z,57.39
2018-04-07T02:33:50.205Z,57.39
2018-04-07T02:34:55.954Z,57.48
2018-04-07T02:36:01.697Z,57.68
2018-04-07T02:37:07.460Z,57.83
2018-04-07T02:38:13.988Z,57.98
2018-04-07T02:39:19.741Z,58.25
2018-04-07T02:40:25.484Z,58.36
2018-04-07T02:41:32.736Z,58.36
2018-04-07T02:42:38.542Z,58.40
2018-04-07T02:43:45.254Z,58.48
2018-04-07T02:44:51.005Z,58.65
2018-04-07T02:45:56.774Z,58.68
2018-04-07T02:47:03.287Z,58.78
2018-04-07T02:48:09.052Z,58.76
2018-04-07T02:49:14.815Z,58.78
2018-04-07T02:50:21.589Z,58.77
2018-04-07T02:51:27.500Z,58.80
2018-04-07T02:52:33.266Z,58.74
2018-04-07T02:53:39.792Z,58.70
2018-04-07T02:54:45.547Z,58.77
2018-04-07T02:55:52.079Z,58.71
2018-04-07T02:56:57.821Z,58.60
2018-04-07T02:58:03.569Z,58.59
2018-04-07T02:59:09.345Z,58.54
2018-04-07T03:00:15.855Z,58.68
2018-04-07T03:01:21.597Z,58.64
2018-04-07T03:02:27.335Z,58.60
2018-04-07T03:03:33.075Z,58.57
2018-04-07T03:04:38.849Z,58.69
2018-04-07T03:05:44.612Z,58.75
2018-04-07T03:06:51.121Z,58.81
2018-04-07T03:07:56.868Z,58.87
2018-04-07T03:09:02.617Z,58.95
2018-04-07T03:10:08.381Z,59.08
2018-04-07T03:11:14.896Z,59.12
2018-04-07T03:12:20.645Z,59.16
2018-04-07T03:13:26.181Z,59.22
2018-04-07T03:14:31.937Z,59.29
2018-04-07T03:15:37.702Z,59.34
2018-04-07T03:16:43.455Z,59.33
2018-04-07T03:17:49.980Z,59.43
2018-04-07T03:18:55.725Z,59.44
2018-04-07T03:20:01.474Z,59.40
2018-04-07T03:21:07.268Z,59.30
2018-04-07T03:22:13.028Z,59.25
2018-04-07T03:23:18.773Z,59.20
2018-04-07T03:24:24.524Z,59.15
2018-04-07T03:25:30.260Z,59.40
2018-04-07T03:26:36.066Z,59.40
2018-04-07T03:27:42.590Z,59.41
2018-04-07T03:28:48.342Z,59.44
2018-04-07T03:29:54.090Z,59.59
2018-04-07T03:31:00.603Z,59.72
2018-04-07T03:32:06.376Z,59.76
2018-04-07T03:33:12.121Z,59.76
2018-04-07T03:34:17.897Z,59.79
2018-04-07T03:35:23.671Z,59.70
2018-04-07T03:36:29.424Z,59.70
2018-04-07T03:37:35.184Z,59.85
2018-04-07T03:38:40.925Z,59.80
2018-04-07T03:39:47.945Z,59.86
2018-04-07T03:40:53.685Z,59.77
2018-04-07T03:41:59.189Z,59.87
2018-04-07T03:43:05.516Z,59.93
2018-04-07T03:44:11.247Z,60.00
2018-04-07T03:45:17.000Z,60.11
2018-04-07T03:46:22.496Z,60.00
2018-04-07T03:47:28.241Z,60.08
2018-04-07T03:48:33.819Z,60.18
2018-04-07T03:49:39.569Z,60.26
2018-04-07T03:50:45.082Z,60.42
2018-04-07T03:51:51.088Z,60.38
2018-04-07T03:52:56.626Z,60.46
2018-04-07T03:54:02.401Z,60.52
2018-04-07T03:55:08.134Z,60.52
2018-04-07T03:56:13.879Z,60.48
2018-04-07T03:57:19.631Z,60.50
2018-04-07T03:58:25.372Z,60.50
2018-04-07T03:59:31.135Z,60.49
2018-04-07T04:00:36.659Z,60.46
2018-04-07T04:01:42.402Z,60.55
2018-04-07T04:02:49.862Z,60.50
2018-04-07T04:03:55.372Z,60.52
2018-04-07T04:05:00.905Z,60.57
2018-04-07T04:06:06.656Z,60.60
2018-04-07T04:07:12.388Z,60.68
2018-04-07T04:08:18.125Z,60.69
2018-04-07T04:09:23.902Z,60.78
2018-04-07T04:10:29.676Z,60.74
2018-04-07T04:11:35.958Z,60.73
2018-04-07T04:12:41.708Z,60.71
2018-04-07T04:13:47.448Z,60.72
2018-04-07T04:14:53.183Z,60.69
2018-04-07T04:15:58.947Z,60.73
2018-04-07T04:17:04.705Z,60.70
2018-04-07T04:18:10.444Z,60.70
2018-04-07T04:19:16.189Z,60.75
2018-04-07T04:20:21.934Z,60.86
2018-04-07T04:21:27.740Z,60.84
2018-04-07T04:22:33.472Z,60.83
2018-04-07T04:23:39.229Z,60.96
2018-04-07T04:24:44.986Z,60.93
2018-04-07T04:25:50.731Z,60.95
2018-04-07T04:26:56.498Z,61.09
2018-04-07T04:28:02.241Z,61.06
2018-04-07T04:29:07.978Z,61.04
2018-04-07T04:30:13.722Z,61.03
2018-04-07T04:31:19.466Z,61.03
2018-04-07T04:32:25.228Z,61.10
2018-04-07T04:33:31.747Z,61.12
2018-04-07T04:34:37.488Z,61.09
2018-04-07T04:35:43.329Z,61.15
2018-04-07T04:36:49.079Z,61.12
2018-04-07T04:37:54.846Z,61.03
2018-04-07T04:39:00.363Z,61.02
2018-04-07T04:40:06.248Z,61.02
2018-04-07T04:41:12.534Z,60.98
2018-04-07T04:42:18.308Z,60.90
2018-04-07T04:43:24.076Z,60.88
2018-04-07T04:44:30.592Z,60.92
2018-04-07T04:45:36.362Z,60.93
2018-04-07T04:46:42.972Z,60.90
2018-04-07T04:47:48.769Z,60.88
2018-04-07T04:48:55.668Z,60.90
2018-04-07T04:50:02.377Z,61.00
2018-04-07T04:51:08.151Z,61.07
2018-04-07T04:52:14.017Z,61.05
2018-04-07T04:53:20.769Z,60.99
2018-04-07T04:54:26.592Z,60.98
2018-04-07T04:55:32.943Z,60.96
2018-04-07T04:56:39.277Z,60.86
2018-04-07T04:57:45.072Z,60.85
2018-04-07T04:58:50.828Z,60.87
2018-04-07T04:59:56.606Z,60.82
2018-04-07T05:01:02.353Z,60.74
2018-04-07T05:02:08.104Z,60.72
2018-04-07T05:03:13.933Z,60.77
2018-04-07T05:04:19.673Z,60.75
2018-04-07T05:05:25.447Z,60.79
2018-04-07T05:06:32.061Z,60.71
2018-04-07T05:07:37.805Z,60.60
2018-04-07T05:08:43.564Z,60.56
2018-04-07T05:09:50.106Z,60.47
2018-04-07T05:10:55.881Z,60.51
2018-04-07T05:12:01.628Z,60.52
2018-04-07T05:13:08.134Z,60.47
2018-04-07T05:14:13.949Z,60.43
2018-04-07T05:15:20.216Z,60.47
2018-04-07T05:16:25.729Z,60.49
2018-04-07T05:17:31.499Z,60.54
2018-04-07T05:18:37.253Z,60.53
2018-04-07T05:19:42.765Z,60.52
2018-04-07T05:20:48.512Z,60.55
2018-04-07T05:21:54.268Z,60.61
2018-04-07T05:23:00.031Z,60.65
2018-04-07T05:24:05.784Z,60.60
2018-04-07T05:25:11.528Z,60.49
2018-04-07T05:26:17.306Z,60.50
2018-04-07T05:27:23.845Z,60.51
2018-04-07T05:28:29.606Z,60.49
2018-04-07T05:29:35.352Z,60.44
2018-04-07T05:30:41.102Z,60.46
2018-04-07T05:31:46.868Z,60.40
2018-04-07T05:32:52.642Z,60.43
2018-04-07T05:33:58.472Z,60.38
2018-04-07T05:35:04.244Z,60.32
2018-04-07T05:36:10.758Z,60.35
2018-04-07T05:37:16.494Z,60.21
2018-04-07T05:38:22.021Z,60.17
2018-04-07T05:39:27.774Z,60.14
2018-04-07T05:40:33.509Z,60.15
2018-04-07T05:41:39.264Z,60.05
2018-04-07T05:42:45.016Z,59.94
2018-04-07T05:43:50.777Z,59.86
2018-04-07T05:44:57.290Z,59.85
2018-04-07T05:46:02.716Z,59.72
2018-04-07T05:47:08.468Z,59.58
2018-04-07T05:48:14.198Z,59.49
2018-04-07T05:49:19.988Z,59.46
2018-04-07T05:50:26.525Z,59.46
2018-04-07T05:51:32.293Z,59.36
2018-04-07T05:52:38.032Z,59.21
2018-04-07T05:53:43.794Z,59.08
2018-04-07T05:54:50.322Z,58.98
2018-04-07T05:55:56.069Z,58.94
2018-04-07T05:57:01.846Z,58.85
2018-04-07T05:58:07.585Z,58.81
2018-04-07T05:59:13.342Z,58.70
2018-04-07T06:00:19.121Z,58.60
2018-04-07T06:01:24.877Z,58.44
2018-04-07T06:02:32.131Z,58.26
2018-04-07T06:03:37.883Z,58.29
2018-04-07T06:04:43.620Z,58.24
2018-04-07T06:05:49.392Z,58.34
2018-04-07T06:06:55.907Z,58.21
2018-04-07T06:08:01.658Z,58.20
2018-04-07T06:09:08.283Z,58.19
2018-04-07T06:10:14.027Z,58.18
2018-04-07T06:11:19.805Z,58.10
2018-04-07T06:12:25.565Z,58.09
2018-04-07T06:13:32.093Z,58.00
2018-04-07T06:14:37.836Z,57.83
2018-04-07T06:15:43.640Z,57.70
2018-04-07T06:16:50.172Z,57.49
2018-04-07T06:17:55.919Z,57.44
2018-04-07T06:19:02.216Z,57.33
2018-04-07T06:20:07.120Z,57.40
2018-04-07T06:21:12.629Z,57.31
2018-04-07T06:22:19.178Z,57.15
2018-04-07T06:23:24.937Z,57.16
2018-04-07T06:24:32.173Z,57.15
2018-04-07T06:25:37.912Z,57.24
2018-04-07T06:26:43.664Z,57.04
2018-04-07T06:27:49.428Z,56.88
2018-04-07T06:28:55.179Z,56.72
2018-04-07T06:30:01.690Z,56.75
2018-04-07T06:31:07.436Z,56.72
2018-04-07T06:32:13.202Z,56.57
2018-04-07T06:33:18.960Z,56.42
2018-04-07T06:34:24.720Z,56.37
2018-04-07T06:35:30.472Z,56.32
2018-04-07T06:36:36.033Z,56.26
2018-04-07T06:37:41.784Z,56.34
2018-04-07T06:38:47.563Z,56.21
2018-04-07T06:39:53.319Z,55.99
2018-04-07T06:40:59.833Z,56.07
2018-04-07T06:42:05.594Z,55.97
2018-04-07T06:43:11.357Z,55.88
2018-04-07T06:44:17.976Z,55.89
2018-04-07T06:45:23.709Z,55.95
2018-04-07T06:46:29.231Z,55.75
2018-04-07T06:47:34.981Z,55.78
2018-04-07T06:48:40.729Z,55.76
2018-04-07T06:49:46.520Z,55.81
2018-04-07T06:50:53.029Z,55.71
2018-04-07T06:51:58.787Z,55.66
2018-04-07T06:53:04.537Z,55.56
2018-04-07T06:54:10.299Z,55.44
2018-04-07T06:55:16.830Z,55.43
2018-04-07T06:56:22.601Z,55.35
2018-04-07T06:57:29.116Z,55.28
2018-04-07T06:58:35.087Z,54.62
2018-04-07T06:59:40.863Z,54.66
2018-04-07T07:00:47.415Z,54.72
2018-04-07T07:01:53.947Z,54.82
2018-04-07T07:02:59.682Z,54.68
2018-04-07T07:04:05.446Z,54.22
2018-04-07T07:05:11.740Z,53.90
2018-04-07T07:06:17.558Z,53.89
2018-04-07T07:07:23.312Z,53.79
2018-04-07T07:08:29.101Z,53.80
2018-04-07T07:09:34.844Z,53.81
2018-04-07T07:10:40.588Z,53.44
2018-04-07T07:11:46.194Z,53.21
2018-04-07T07:12:51.948Z,52.37
2018-04-07T07:13:57.684Z,51.26
2018-04-07T07:15:03.457Z,50.12
2018-04-07T07:16:09.217Z,48.66
2018-04-07T07:17:15.749Z,47.04
2018-04-07T07:18:22.829Z,45.84
2018-04-07T07:19:28.772Z,44.78
2018-04-07T07:20:34.529Z,43.32
2018-04-07T07:21:40.843Z,42.30
2018-04-07T07:22:46.652Z,41.41
2018-04-07T07:23:52.535Z,40.56
2018-04-07T07:24:58.064Z,39.45
2018-04-07T07:26:03.816Z,38.58
2018-04-07T07:27:09.338Z,37.73
2018-04-07T07:28:15.127Z,36.81
2018-04-07T07:29:21.632Z,36.01
2018-04-07T07:30:27.381Z,35.50
2018-04-07T07:31:33.141Z,35.09
2018-04-07T07:32:38.894Z,34.90
2018-04-07T07:33:44.449Z,34.47
2018-04-07T07:34:50.971Z,34.04
2018-04-07T07:35:56.714Z,33.62
2018-04-07T07:37:02.524Z,33.16
2018-04-07T07:38:08.276Z,32.67
2018-04-07T07:39:14.052Z,32.41
2018-04-07T07:40:19.817Z,31.66
2018-04-07T07:41:26.377Z,30.66
2018-04-07T07:42:32.117Z,30.65
2018-04-07T07:43:38.652Z,30.62
2018-04-07T07:44:44.423Z,30.72
2018-04-07T07:45:50.936Z,30.35
2018-04-07T07:46:56.694Z,30.46
2018-04-07T07:48:02.450Z,30.47
2018-04-07T07:49:08.214Z,30.59
2018-04-07T07:50:14.758Z,30.65
2018-04-07T07:51:20.514Z,30.28
2018-04-07T07:52:27.042Z,29.96
2018-04-07T07:53:32.789Z,29.46
2018-04-07T07:54:40.101Z,29.40
2018-04-07T07:55:46.644Z,29.27
2018-04-07T07:56:53.168Z,29.27
2018-04-07T07:57:58.917Z,29.45
2018-04-07T07:59:04.673Z,29.21
2018-04-07T08:00:10.437Z,28.97
2018-04-07T08:01:16.981Z,28.39
2018-04-07T08:02:22.740Z,28.03
2018-04-07T08:03:29.263Z,27.66
2018-04-07T08:04:34.867Z,27.54
2018-04-07T08:05:40.626Z,27.05
2018-04-07T08:06:46.410Z,26.92
2018-04-07T08:07:52.151Z,26.40
2018-04-07T08:08:58.683Z,25.71
2018-04-07T08:10:04.195Z,26.00
2018-04-07T08:11:09.967Z,25.57
2018-04-07T08:12:15.525Z,25.56
2018-04-07T08:13:22.043Z,25.74
2018-04-07T08:14:27.811Z,25.70
2018-04-07T08:15:33.562Z,25.86
2018-04-07T08:16:40.092Z,25.69
2018-04-07T08:17:46.105Z,25.97
2018-04-07T08:18:51.860Z,26.25
2018-04-07T08:19:57.622Z,26.19
2018-04-07T08:21:03.385Z,26.30
2018-04-07T08:22:10.325Z,26.60
2018-04-07T08:23:16.268Z,26.14
2018-04-07T08:24:22.831Z,26.21
2018-04-07T08:25:28.791Z,26.02
2018-04-07T08:26:34.551Z,25.80
2018-04-07T08:27:41.117Z,25.56
2018-04-07T08:28:48.713Z,25.50
2018-04-07T08:29:54.508Z,25.38
2018-04-07T08:31:00.041Z,25.14
2018-04-07T08:32:05.262Z,24.73
2018-04-07T08:33:11.216Z,24.60
2018-04-07T08:34:16.995Z,24.78
2018-04-07T08:35:22.753Z,24.62
2018-04-07T08:36:28.496Z,24.32
2018-04-07T08:37:34.271Z,24.10
2018-04-07T08:38:40.234Z,23.71
2018-04-07T08:39:45.840Z,23.38
2018-04-07T08:40:52.149Z,22.93
2018-04-07T08:41:58.249Z,23.01
2018-04-07T08:43:04.107Z,22.76
2018-04-07T08:44:09.969Z,22.26
2018-04-07T08:45:15.737Z,22.14
2018-04-07T08:46:21.499Z,22.08
2018-04-07T08:47:27.324Z,22.18
2018-04-07T08:48:32.851Z,22.19
2018-04-07T08:49:38.600Z,22.48
2018-04-07T08:50:44.422Z,22.80
2018-04-07T08:51:50.185Z,22.71
2018-04-07T08:52:55.995Z,22.54
2018-04-07T08:54:01.606Z,22.28
2018-04-07T08:55:10.059Z,21.98
2018-04-07T08:56:15.955Z,21.79
2018-04-07T08:57:22.138Z,21.74
2018-04-07T08:58:28.099Z,21.59
2018-04-07T08:59:34.098Z,21.41
2018-04-07T09:00:41.086Z,21.22
2018-04-07T09:01:47.701Z,21.07
2018-04-07T09:02:53.693Z,20.93
2018-04-07T09:04:00.312Z,20.49
2018-04-07T09:05:07.733Z,20.26
2018-04-07T09:06:14.280Z,20.28
2018-04-07T09:07:20.155Z,20.15
2018-04-07T09:08:26.668Z,19.58
2018-04-07T09:09:33.195Z,19.34
2018-04-07T09:10:38.988Z,19.38
2018-04-07T09:11:44.882Z,19.37
2018-04-07T09:12:50.681Z,19.50
2018-04-07T09:13:57.205Z,19.17
2018-04-07T09:15:02.956Z,19.04
2018-04-07T09:16:08.920Z,19.26
2018-04-07T09:17:15.452Z,19.20
2018-04-07T09:18:21.322Z,19.41
2018-04-07T09:19:27.151Z,19.52
2018-04-07T09:20:33.115Z,19.82
2018-04-07T09:21:38.911Z,19.86
2018-04-07T09:22:44.854Z,19.50
2018-04-07T09:23:50.378Z,19.33
2018-04-07T09:24:56.353Z,18.83
2018-04-07T09:26:02.097Z,18.79
2018-04-07T09:27:07.846Z,18.74
2018-04-07T09:28:13.638Z,18.84
2018-04-07T09:29:20.505Z,18.92
2018-04-07T09:30:26.299Z,18.77
2018-04-07T09:31:32.091Z,18.53
2018-04-07T09:32:37.904Z,18.39
2018-04-07T09:33:44.659Z,18.40
2018-04-07T09:34:50.544Z,18.06
2018-04-07T09:35:56.441Z,17.77
2018-04-07T09:37:02.225Z,17.92
2018-04-07T09:38:08.225Z,17.98
2018-04-07T09:39:14.006Z,18.32
2018-04-07T09:40:20.829Z,18.11
2018-04-07T09:41:26.620Z,18.46
2018-04-07T09:42:33.192Z,18.62
2018-04-07T09:43:38.721Z,18.87
2018-04-07T09:44:45.238Z,18.87
2018-04-07T09:45:51.032Z,18.65
2018-04-07T09:46:56.803Z,18.44
2018-04-07T09:48:02.581Z,18.16
2018-04-07T09:49:09.276Z,17.75
2018-04-07T09:50:15.915Z,17.36
2018-04-07T09:51:22.468Z,17.31
2018-04-07T09:52:29.034Z,17.13
2018-04-07T09:53:35.580Z,16.81
2018-04-07T09:54:41.434Z,16.65
2018-04-07T09:55:47.507Z,17.61
2018-04-07T09:56:54.046Z,17.93
2018-04-07T09:58:00.677Z,17.97
2018-04-07T09:59:07.935Z,17.90
2018-04-07T10:00:14.257Z,17.60
2018-04-07T10:01:19.868Z,17.61
2018-04-07T10:02:25.581Z,17.63
2018-04-07T10:03:31.528Z,17.93
2018-04-07T10:04:37.286Z,18.23
2018-04-07T10:05:43.816Z,18.59
2018-04-07T10:06:49.658Z,18.76
2018-04-07T10:07:56.508Z,18.74
2018-04-07T10:09:02.076Z,18.30
2018-04-07T10:10:08.494Z,18.38
2018-04-07T10:11:14.059Z,18.56
2018-04-07T10:12:19.820Z,18.52
2018-04-07T10:13:26.367Z,18.52
2018-04-07T10:14:32.936Z,18.38
2018-04-07T10:15:38.742Z,18.80
2018-04-07T10:16:44.621Z,18.75
2018-04-07T10:17:50.457Z,18.89
2018-04-07T10:18:57.085Z,18.88
2018-04-07T10:20:03.393Z,18.82
2018-04-07T10:21:11.147Z,18.85
2018-04-07T10:22:16.947Z,18.90
2018-04-07T10:23:24.643Z,19.20
2018-04-07T10:24:31.440Z,19.41
2018-04-07T10:25:37.245Z,19.67
2018-04-07T10:26:43.451Z,19.39
2018-04-07T10:27:49.276Z,19.63
2018-04-07T10:28:55.361Z,19.27
2018-04-07T10:30:01.145Z,19.49
2018-04-07T10:31:06.918Z,19.67
2018-04-07T10:32:12.688Z,19.69
2018-04-07T10:33:19.299Z,19.80
2018-04-07T10:34:26.281Z,19.87
2018-04-07T10:35:32.083Z,20.34
2018-04-07T10:36:37.852Z,20.37
2018-04-07T10:37:43.345Z,20.15
2018-04-07T10:38:51.568Z,19.39
2018-04-07T10:39:57.383Z,19.57
2018-04-07T10:41:03.178Z,19.84
2018-04-07T10:42:08.968Z,21.02
2018-04-07T10:43:14.733Z,21.59
2018-04-07T10:44:21.296Z,21.91
2018-04-07T10:45:27.117Z,22.05
2018-04-07T10:46:32.919Z,22.05
2018-04-07T10:47:38.672Z,22.33
2018-04-07T10:48:44.437Z,22.57
2018-04-07T10:49:50.280Z,22.85
2018-04-07T10:50:56.029Z,23.04
2018-04-07T10:52:02.602Z,23.28
2018-04-07T10:53:09.149Z,23.15
2018-04-07T10:54:14.900Z,22.80
2018-04-07T10:55:21.486Z,22.92
2018-04-07T10:56:28.107Z,23.23
2018-04-07T10:57:33.893Z,23.66
2018-04-07T10:58:39.664Z,23.83
2018-04-07T10:59:45.176Z,24.15
2018-04-07T11:00:50.950Z,24.45
2018-04-07T11:01:56.706Z,24.82
2018-04-07T11:03:02.490Z,25.08
2018-04-07T11:04:08.273Z,25.29
2018-04-07T11:05:13.791Z,25.50
2018-04-07T11:06:19.580Z,25.51
2018-04-07T11:07:26.190Z,25.86
2018-04-07T11:08:33.172Z,25.96
2018-04-07T11:09:38.974Z,26.15
2018-04-07T11:10:46.809Z,26.59
2018-04-07T11:11:52.722Z,26.69
2018-04-07T11:12:58.494Z,26.75
2018-04-07T11:14:04.620Z,26.82
2018-04-07T11:15:10.943Z,27.01
2018-04-07T11:16:16.709Z,27.15
2018-04-07T11:17:23.254Z,27.20
2018-04-07T11:18:29.186Z,27.07
2018-04-07T11:19:34.960Z,27.07
2018-04-07T11:20:40.724Z,26.90
2018-04-07T11:21:46.467Z,26.54
2018-04-07T11:22:52.240Z,26.70
2018-04-07T11:23:58.001Z,26.83
2018-04-07T11:25:03.777Z,27.21
2018-04-07T11:26:09.343Z,27.27
2018-04-07T11:27:14.765Z,27.45
2018-04-07T11:28:20.621Z,27.35
2018-04-07T11:29:26.360Z,27.54
2018-04-07T11:30:32.239Z,27.94
2018-04-07T11:31:38.760Z,28.00
2018-04-07T11:32:44.549Z,28.11
2018-04-07T11:33:50.330Z,27.99
2018-04-07T11:34:56.304Z,27.93
2018-04-07T11:36:02.089Z,27.45
2018-04-07T11:37:08.964Z,27.72
2018-04-07T11:38:15.481Z,27.79
2018-04-07T11:39:21.247Z,27.78
2018-04-07T11:40:27.829Z,27.40
2018-04-07T11:41:33.622Z,27.29
2018-04-07T11:42:39.373Z,27.35
2018-04-07T11:43:45.134Z,27.54
2018-04-07T11:44:51.758Z,27.72
2018-04-07T11:45:57.564Z,27.82
2018-04-07T11:47:03.441Z,27.50
2018-04-07T11:48:09.216Z,27.82
2018-04-07T11:49:14.984Z,28.00
2018-04-07T11:50:21.541Z,28.07
2018-04-07T11:51:28.108Z,28.12
2018-04-07T11:52:34.646Z,28.21
2018-04-07T11:53:40.415Z,28.29
2018-04-07T11:54:46.173Z,28.52
2018-04-07T11:55:51.956Z,28.35
2018-04-07T11:56:59.242Z,28.46
2018-04-07T11:58:05.908Z,28.69
2018-04-07T11:59:11.670Z,29.10
2018-04-07T12:00:17.490Z,29.35
2018-04-07T12:01:23.249Z,29.37
2018-04-07T12:02:29.790Z,29.50
2018-04-07T12:03:35.789Z,29.71
2018-04-07T12:04:41.564Z,29.67
2018-04-07T12:05:47.427Z,29.48
2018-04-07T12:06:54.175Z,29.02
2018-04-07T12:08:01.478Z,29.16
2018-04-07T12:09:07.926Z,29.24
2018-04-07T12:10:14.537Z,29.09
2018-04-07T12:11:20.321Z,29.27
2018-04-07T12:12:26.283Z,29.28
2018-04-07T12:13:32.861Z,29.23
2018-04-07T12:14:38.672Z,29.19
2018-04-07T12:15:45.471Z,29.10
2018-04-07T12:16:51.017Z,29.07
2018-04-07T12:17:57.057Z,29.01
2018-04-07T12:19:02.944Z,29.01
2018-04-07T12:20:08.924Z,28.94
2018-04-07T12:21:16.230Z,28.92
2018-04-07T12:22:23.786Z,28.89
2018-04-07T12:23:31.298Z,28.74
2018-04-07T12:24:38.064Z,28.89
2018-04-07T12:25:44.017Z,29.19
2018-04-07T12:26:50.853Z,29.14
2018-04-07T12:27:56.857Z,28.99
2018-04-07T12:29:03.894Z,28.88
2018-04-07T12:30:10.036Z,28.70
2018-04-07T12:31:17.501Z,28.73
2018-04-07T12:32:24.043Z,28.78
2018-04-07T12:33:30.759Z,28.77
2018-04-07T12:34:36.586Z,28.60
2018-04-07T12:35:42.441Z,28.55
2018-04-07T12:36:48.326Z,28.35
2018-04-07T12:37:55.039Z,28.27
2018-04-07T12:39:02.120Z,28.24
2018-04-07T12:40:08.055Z,28.28
2018-04-07T12:41:13.647Z,28.46
2018-04-07T12:42:19.695Z,28.41
2018-04-07T12:43:25.621Z,28.37
2018-04-07T12:44:31.577Z,28.14
2018-04-07T12:45:38.378Z,28.10
2018-04-07T12:46:44.924Z,28.16
2018-04-07T12:47:51.344Z,28.17
2018-04-07T12:48:57.766Z,28.02
2018-04-07T12:50:05.025Z,27.98
2018-04-07T12:51:11.937Z,27.62
2018-04-07T12:52:20.188Z,27.56
2018-04-07T12:53:27.392Z,27.65
2018-04-07T12:54:33.766Z,27.33
2018-04-07T12:55:39.944Z,26.35
2018-04-07T12:56:45.928Z,26.29
2018-04-07T12:57:52.576Z,26.25
2018-04-07T12:58:59.112Z,26.19
2018-04-07T13:00:04.497Z,26.26
2018-04-07T13:01:11.239Z,26.49
2018-04-07T13:02:17.385Z,26.85
2018-04-07T13:03:22.989Z,27.19
2018-04-07T13:04:29.484Z,27.31
2018-04-07T13:05:36.005Z,27.44
2018-04-07T13:06:42.380Z,27.49
2018-04-07T13:07:48.156Z,27.51
2018-04-07T13:08:54.689Z,27.49
2018-04-07T13:10:00.505Z,27.52
2018-04-07T13:11:06.287Z,27.58
2018-04-07T13:12:13.689Z,27.57
2018-04-07T13:13:19.462Z,27.55
2018-04-07T13:14:25.234Z,27.66
2018-04-07T13:15:31.019Z,27.67
2018-04-07T13:16:36.346Z,27.51
2018-04-07T13:17:43.708Z,27.33
2018-04-07T13:18:50.237Z,27.35
2018-04-07T13:19:56.007Z,27.54
2018-04-07T13:21:01.790Z,27.33
2018-04-07T13:22:07.583Z,27.08
2018-04-07T13:23:14.125Z,27.13
2018-04-07T13:24:19.935Z,27.13
2018-04-07T13:25:25.839Z,27.29
2018-04-07T13:26:32.594Z,27.34
2018-04-07T13:27:38.444Z,26.94
2018-04-07T13:28:45.158Z,26.79
2018-04-07T13:29:50.943Z,26.74
2018-04-07T13:30:56.660Z,26.54
2018-04-07T13:32:02.549Z,26.39
2018-04-07T13:33:09.025Z,26.58
2018-04-07T13:34:14.800Z,26.66
2018-04-07T13:35:20.719Z,26.64
2018-04-07T13:36:26.331Z,26.60
2018-04-07T13:37:33.268Z,26.41
2018-04-07T13:39:40.757Z,25.97
2018-04-07T13:40:46.575Z,25.89
2018-04-07T13:41:52.395Z,26.03
2018-04-07T13:42:58.272Z,26.23
2018-04-07T13:44:03.590Z,26.35
2018-04-07T13:45:10.638Z,26.60
2018-04-07T13:46:16.412Z,26.79
2018-04-07T13:47:22.238Z,26.76
2018-04-07T13:48:28.013Z,26.71
2018-04-07T13:49:33.770Z,26.58
2018-04-07T13:50:39.698Z,26.41
2018-04-07T13:51:45.698Z,26.26
2018-04-07T13:52:51.547Z,26.15
2018-04-07T13:53:57.042Z,26.22
2018-04-07T13:55:02.793Z,26.12
2018-04-07T13:56:09.488Z,26.10
2018-04-07T13:57:15.326Z,26.00
2018-04-07T13:58:21.477Z,26.10
2018-04-07T13:59:27.299Z,26.27
2018-04-07T14:00:33.778Z,26.37
2018-04-07T14:01:40.297Z,26.39
2018-04-07T14:02:46.053Z,26.45
2018-04-07T14:03:51.806Z,26.50
2018-04-07T14:04:58.368Z,26.35
2018-04-07T14:06:04.967Z,26.08
2018-04-07T14:07:10.748Z,25.94
2018-04-07T14:08:16.630Z,25.72
2018-04-07T14:09:22.397Z,25.77
2018-04-07T14:10:28.190Z,25.79
2018-04-07T14:11:33.943Z,25.92